Time;durP1;ratioP1;P1;durP2;ratioP2;P2;SDS_P1;SDS_P2;PMS_P1;PMS_P2;Temp;Humidity;BMP_temperature;BMP_pressure;BME280_temperature;BME280_humidity;BME280_pressure;Samples;Min_cycle;Max_cycle;Signal;HPM_P1;HPM_P2
2021/07/11 15:33:19;;;;;;;7.62;4.95;;;;;;;31.41;33.67;100082.45;1802839;78;21734;-55
2021/07/11 15:35:47;;;;;;;5.62;4.62;;;;;;;31.37;33.96;100085.13;1766402;80;20908;-54
2021/07/11 15:38:15;;;;;;;5.70;5.00;;;;;;;31.37;33.79;100080.98;1770105;80;21844;-56
2021/07/11 15:40:45;;;;;;;8.03;5.55;;;;;;;31.35;34.21;100086.09;1764889;80;21010;-55
2021/07/11 15:43:13;;;;;;;6.40;4.72;;;;;;;31.33;34.25;100084.28;1763797;80;21004;-55
2021/07/11 15:45:45;;;;;;;6.20;4.65;;;;;;;31.25;34.31;100082.53;1768757;80;20928;-56
2021/07/11 15:48:14;;;;;;;6.25;4.67;;;;;;;31.15;34.77;100081.14;1770938;80;21004;-55
2021/07/11 15:50:41;;;;;;;6.72;4.83;;;;;;;31.15;35.14;100081.73;1767845;80;21157;-55
2021/07/11 15:53:12;;;;;;;6.95;4.75;;;;;;;31.12;35.15;100083.27;1766488;80;20971;-55
2021/07/11 15:55:40;;;;;;;6.70;5.45;;;;;;;31.09;34.85;100082.61;1767143;80;20931;-56
2021/07/11 15:58:08;;;;;;;5.87;4.65;;;;;;;31.04;35.12;100082.33;1762881;80;20900;-55
2021/07/11 16:00:35;;;;;;;7.83;5.12;;;;;;;31.00;35.37;100080.66;1766587;80;20916;-57
2021/07/11 16:03:03;;;;;;;8.45;5.20;;;;;;;30.98;35.79;100080.98;1767108;80;21186;-55
2021/07/11 16:05:30;;;;;;;8.20;4.97;;;;;;;30.96;35.58;100083.89;1769126;80;21025;-55
2021/07/11 16:07:58;;;;;;;6.17;4.85;;;;;;;30.94;35.58;100080.11;1766555;80;20937;-56
2021/07/11 16:10:26;;;;;;;7.70;5.10;;;;;;;30.92;35.28;100079.68;1764944;80;20975;-54
2021/07/11 16:12:53;;;;;;;9.53;5.75;;;;;;;30.90;35.36;100080.61;1763794;80;21422;-55
2021/07/11 16:15:20;;;;;;;7.00;5.20;;;;;;;30.88;35.57;100080.97;1767117;80;21103;-56
2021/07/11 16:17:47;;;;;;;5.53;4.97;;;;;;;30.87;35.76;100079.36;1766419;80;21482;-55
2021/07/11 16:20:17;;;;;;;9.13;4.95;;;;;;;30.87;35.92;100082.72;1764523;80;20897;-56
2021/07/11 16:22:43;;;;;;;7.37;5.03;;;;;;;30.86;36.00;100083.88;1768225;80;20892;-56
2021/07/11 16:25:12;;;;;;;7.72;4.53;;;;;;;30.87;35.88;100091.02;1765392;80;20975;-56
2021/07/11 16:27:39;;;;;;;7.00;4.62;;;;;;;30.85;35.81;100091.38;1763770;80;22172;-57
2021/07/11 16:30:09;;;;;;;6.40;5.20;;;;;;;30.82;35.45;100082.43;1764951;80;20929;-55
2021/07/11 16:32:36;;;;;;;6.37;4.22;;;;;;;30.77;35.65;100086.06;1765217;80;20932;-56
2021/07/11 16:35:06;;;;;;;6.03;4.80;;;;;;;30.73;35.66;100090.94;1756003;81;20969;-54
2021/07/11 16:37:34;;;;;;;9.13;4.80;;;;;;;30.71;35.64;100092.45;1755852;81;20977;-55
2021/07/11 16:40:03;;;;;;;7.22;5.40;;;;;;;30.65;35.91;100097.45;1754008;81;21112;-57
2021/07/11 16:42:30;;;;;;;6.58;5.28;;;;;;;30.63;36.31;100096.24;1755978;81;20936;-55
2021/07/11 16:44:57;;;;;;;8.30;5.03;;;;;;;30.60;36.26;100100.52;1755749;81;21565;-56
2021/07/11 16:47:24;;;;;;;7.33;5.03;;;;;;;30.55;36.51;100100.22;1753617;81;21582;-55
2021/07/11 16:49:51;;;;;;;6.85;5.33;;;;;;;30.53;36.74;100103.12;1755654;81;21008;-55
2021/07/11 16:52:18;;;;;;;8.55;5.03;;;;;;;30.50;36.79;100106.02;1754610;81;21168;-55
2021/07/11 16:54:45;;;;;;;10.20;5.60;;;;;;;30.49;36.86;100098.08;1754622;81;21419;-54
2021/07/11 16:57:12;;;;;;;10.82;5.67;;;;;;;30.43;36.92;100096.17;1757705;81;20975;-54
2021/07/11 16:59:39;;;;;;;11.38;5.60;;;;;;;30.39;37.20;100093.90;1754793;81;20992;-54
2021/07/11 17:02:07;;;;;;;9.53;5.90;;;;;;;30.35;37.36;100091.63;1755171;81;21616;-56
2021/07/11 17:04:33;;;;;;;11.53;5.90;;;;;;;30.31;37.49;100097.05;1752324;81;21140;-56
2021/07/11 17:07:02;;;;;;;14.68;5.53;;;;;;;30.28;37.67;100091.45;1753870;79;20908;-57
2021/07/11 17:09:29;;;;;;;5.67;4.92;;;;;;;30.23;37.84;100099.44;1754197;79;20952;-56
2021/07/11 17:11:56;;;;;;;10.23;5.70;;;;;;;30.19;38.03;100092.43;1755381;81;20893;-56
2021/07/11 17:14:23;;;;;;;11.63;5.92;;;;;;;30.15;38.38;100095.71;1755335;81;21015;-56
2021/07/11 17:16:52;;;;;;;7.33;5.20;;;;;;;30.13;38.60;100097.22;1751914;81;21515;-57
2021/07/11 17:19:21;;;;;;;9.20;5.50;;;;;;;30.09;38.65;100094.94;1755574;81;21007;-55
2021/07/11 17:21:50;;;;;;;7.25;5.92;;;;;;;30.06;38.80;100103.36;1756739;81;21000;-56
2021/07/11 17:24:17;;;;;;;7.25;5.30;;;;;;;30.01;39.07;100096.14;1756896;81;20940;-55
2021/07/11 17:26:44;;;;;;;8.33;5.85;;;;;;;29.99;39.41;100097.66;1754979;81;20964;-60
2021/07/11 17:29:11;;;;;;;10.27;5.50;;;;;;;29.97;39.63;100105.51;1753303;81;21792;-57
2021/07/11 17:31:39;;;;;;;6.58;5.28;;;;;;;29.96;39.91;100112.18;1757026;79;21449;-55
2021/07/11 17:34:07;;;;;;;6.75;5.33;;;;;;;29.91;39.94;100104.97;1767965;80;20856;-55
2021/07/11 17:36:36;;;;;;;8.60;6.70;;;;;;;29.86;39.92;100109.39;1772222;80;21049;-54
2021/07/11 17:39:04;;;;;;;11.80;6.50;;;;;;;29.81;40.05;100109.61;1772586;80;20970;-55
2021/07/11 17:41:31;;;;;;;;;;;;;;;29.77;40.14;100108.70;1772829;80;21137;-55
2021/07/11 17:43:57;;;;;;;7.72;6.15;;;;;;;29.73;40.25;100110.56;1771550;80;20186;-55
2021/07/11 17:46:27;;;;;;;8.60;6.47;;;;;;;29.68;40.43;100109.69;1771773;80;20934;-55
2021/07/11 17:48:53;;;;;;;9.03;6.17;;;;;;;29.64;40.22;100108.78;1767766;80;20942;-55
2021/07/11 17:51:22;;;;;;;10.00;6.23;;;;;;;29.61;40.23;100115.02;1770564;80;20959;-54
2021/07/11 17:53:51;;;;;;;7.72;5.37;;;;;;;29.57;40.29;100114.11;1774230;80;21149;-55
2021/07/11 17:56:17;;;;;;;9.63;6.25;;;;;;;29.53;40.47;100116.80;1771688;80;20908;-56
2021/07/11 17:58:44;;;;;;;9.48;6.28;;;;;;;29.50;40.44;100118.84;1769590;80;21193;-55
2021/07/11 18:01:11;;;;;;;8.38;5.40;;;;;;;29.48;40.60;100116.24;1771452;80;20959;-56
2021/07/11 18:03:38;;;;;;;9.03;6.40;;;;;;;29.44;40.67;100126.38;1770363;80;21352;-56
2021/07/11 18:06:07;;;;;;;11.28;7.03;;;;;;;29.42;40.79;100121.80;1767932;80;21880;-56
2021/07/11 18:08:33;;;;;;;10.60;6.65;;;;;;;29.36;41.10;100122.03;1771065;80;20991;-55
2021/07/11 18:11:00;;;;;;;11.90;6.25;;;;;;;29.30;41.18;100130.34;1768822;80;21364;-55
2021/07/11 18:13:27;;;;;;;10.55;6.47;;;;;;;29.23;41.61;100127.96;1771774;79;21334;-55
2021/07/11 18:15:53;;;;;;;12.50;6.45;;;;;;;29.19;41.83;100131.95;1770166;80;21478;-56
2021/07/11 18:18:22;;;;;;;10.20;6.70;;;;;;;29.16;42.05;100129.31;1774421;80;21042;-59
2021/07/11 18:20:49;;;;;;;8.30;7.28;;;;;;;29.15;42.17;100137.38;1770474;80;21555;-56
2021/07/11 18:23:16;;;;;;;12.70;6.63;;;;;;;29.14;42.33;100139.11;1771576;80;20979;-56
2021/07/11 18:25:43;;;;;;;9.73;6.62;;;;;;;29.12;42.48;100138.08;1767981;80;20950;-55
2021/07/11 18:28:10;;;;;;;9.98;6.80;;;;;;;29.10;42.54;100136.81;1767723;80;20943;-56
2021/07/11 18:30:38;;;;;;;7.97;5.92;;;;;;;29.07;42.66;100139.69;1769774;79;21773;-58
2021/07/11 18:33:05;;;;;;;6.78;5.90;;;;;;;29.04;42.52;100144.53;1770866;79;20963;-56
2021/07/11 18:35:33;;;;;;;11.03;6.40;;;;;;;28.99;42.44;100146.95;1769512;80;20978;-55
2021/07/11 18:37:59;;;;;;;8.20;5.90;;;;;;;28.98;42.66;100152.23;1770838;80;21014;-56
2021/07/11 18:40:26;;;;;;;11.55;5.72;;;;;;;28.96;42.89;100153.73;1774669;80;21514;-55
2021/07/11 18:42:52;;;;;;;12.47;5.92;;;;;;;28.94;43.07;100154.66;1770773;80;21016;-56
2021/07/11 18:45:19;;;;;;;8.43;5.70;;;;;;;28.91;42.97;100161.67;1770823;80;21042;-54
2021/07/11 18:47:47;;;;;;;14.78;6.92;;;;;;;28.88;42.90;100158.23;1771459;80;20919;-56
2021/07/11 18:50:15;;;;;;;10.18;7.40;;;;;;;28.87;43.00;100161.34;1770441;80;21506;-56
2021/07/11 18:52:44;;;;;;;14.30;6.95;;;;;;;28.84;43.16;100159.52;1771906;80;20984;-54
2021/07/11 18:55:11;;;;;;;11.53;6.55;;;;;;;28.82;43.34;100165.14;1769702;80;21138;-57
2021/07/11 18:57:38;;;;;;;10.90;8.05;;;;;;;28.78;43.58;100163.67;1772911;80;21584;-57
2021/07/11 19:00:10;;;;;;;11.05;7.33;;;;;;;28.74;43.83;100171.02;1770552;80;20973;-55
2021/07/11 19:02:40;;;;;;;9.80;7.12;;;;;;;28.70;44.05;100168.72;1772539;79;20868;-54
2021/07/11 19:05:07;;;;;;;8.15;7.25;;;;;;;28.68;44.17;100169.66;1770257;79;21469;-55
2021/07/11 19:07:34;;;;;;;12.75;6.95;;;;;;;28.67;44.45;100165.28;1772642;80;21774;-55
2021/07/11 19:10:01;;;;;;;12.90;7.45;;;;;;;28.64;44.61;100159.88;1770896;80;20931;-54
2021/07/11 19:12:31;;;;;;;13.03;7.37;;;;;;;28.62;44.69;100166.31;1768311;80;20928;-54
2021/07/11 19:15:00;;;;;;;14.28;7.72;;;;;;;28.61;44.76;100167.45;1769232;79;20943;-56
2021/07/11 19:17:29;;;;;;;7.47;6.75;;;;;;;28.60;44.82;100165.02;1774121;80;20965;-56
2021/07/11 19:19:56;;;;;;;11.73;7.58;;;;;;;28.58;44.82;100164.57;1773573;80;21296;-58
2021/07/11 19:22:23;;;;;;;11.75;7.92;;;;;;;28.56;44.94;100166.84;1772106;80;21513;-56
2021/07/11 19:24:50;;;;;;;9.90;7.92;;;;;;;28.52;45.02;100159.03;1770739;80;20900;-55
2021/07/11 19:27:17;;;;;;;8.60;6.90;;;;;;;28.48;45.11;100165.23;1769079;80;20971;-55
2021/07/11 19:29:44;;;;;;;12.82;8.73;;;;;;;28.45;45.06;100161.80;1770996;80;21058;-55
2021/07/11 19:32:11;;;;;;;16.77;7.65;;;;;;;28.43;45.20;100159.97;1770374;80;21112;-56
2021/07/11 19:34:38;;;;;;;14.15;7.37;;;;;;;28.37;45.37;100157.22;1754265;81;21015;-55
2021/07/11 19:37:07;;;;;;;11.55;7.45;;;;;;;28.34;45.42;100150.98;1754810;80;20937;-55
2021/07/11 19:39:34;;;;;;;10.32;7.83;;;;;;;28.32;45.59;100152.71;1756332;81;21044;-56
2021/07/11 19:42:02;;;;;;;12.07;7.42;;;;;;;28.32;45.74;100146.41;1751899;81;21075;-57
2021/07/11 19:44:28;;;;;;;12.00;8.17;;;;;;;28.30;45.85;100147.33;1755811;81;21143;-56
2021/07/11 19:46:55;;;;;;;11.33;7.70;;;;;;;28.26;46.00;100149.95;1755084;81;21018;-56
2021/07/11 19:49:21;;;;;;;9.00;7.62;;;;;;;28.20;46.06;100143.06;1751425;81;21189;-55
2021/07/11 19:51:48;;;;;;;9.28;6.85;;;;;;;28.19;46.10;100150.30;1755262;81;20950;-55
2021/07/11 19:54:15;;;;;;;11.57;7.50;;;;;;;28.17;46.35;100152.02;1754081;81;20991;-56
2021/07/11 19:56:43;;;;;;;10.63;7.03;;;;;;;28.15;45.98;100144.69;1762108;81;21129;-55
2021/07/11 19:59:11;;;;;;;10.30;7.37;;;;;;;28.12;45.97;100142.03;1729860;81;21625;-55
2021/07/11 20:01:38;;;;;;;11.25;8.00;;;;;;;28.10;45.94;100140.17;1753172;81;20994;-55
2021/07/11 20:04:05;;;;;;;10.65;7.87;;;;;;;28.09;46.17;100141.34;1755626;81;20975;-57
2021/07/11 20:06:34;;;;;;;9.90;7.03;;;;;;;28.09;46.00;100137.20;1756008;81;20933;-56
2021/07/11 20:09:00;;;;;;;10.60;7.50;;;;;;;28.07;46.18;100134.56;1755041;81;21460;-56
2021/07/11 20:11:30;;;;;;;10.78;7.28;;;;;;;28.07;46.17;100135.35;1755272;81;21462;-55
2021/07/11 20:13:56;;;;;;;8.48;6.87;;;;;;;28.05;46.23;100135.48;1751968;81;20892;-56
2021/07/11 20:16:24;;;;;;;9.35;6.90;;;;;;;28.03;46.23;100135.00;1755122;81;21051;-55
2021/07/11 20:18:53;;;;;;;9.85;7.50;;;;;;;28.01;46.48;100137.31;1758258;81;20979;-55
2021/07/11 20:21:19;;;;;;;9.50;7.20;;;;;;;28.01;46.55;100140.86;1755501;81;21802;-55
2021/07/11 20:23:47;;;;;;;9.95;7.33;;;;;;;28.00;46.71;100135.69;1755300;81;21387;-55
2021/07/11 20:26:14;;;;;;;10.75;6.87;;;;;;;27.99;46.67;100135.45;1753413;81;21122;-56
2021/07/11 20:28:41;;;;;;;11.10;6.67;;;;;;;27.96;46.42;100130.05;1759205;81;20972;-55
2021/07/11 20:31:07;;;;;;;10.25;6.28;;;;;;;27.95;46.34;100132.56;1753728;79;21509;-54
2021/07/11 20:33:34;;;;;;;9.73;6.30;;;;;;;27.93;46.35;100130.14;1753331;81;21057;-55
2021/07/11 20:36:02;;;;;;;;;;;;;;;27.91;46.40;100129.66;1758360;81;20964;-56
2021/07/11 20:38:29;;;;;;;13.58;6.90;;;;;;;27.90;46.57;100130.83;1755314;81;20148;-54
2021/07/11 20:40:55;;;;;;;12.30;6.37;;;;;;;27.88;46.58;100130.35;1753796;81;20913;-55
2021/07/11 20:43:22;;;;;;;9.40;6.90;;;;;;;27.88;46.57;100129.56;1753347;79;20929;-55
2021/07/11 20:45:51;;;;;;;8.68;6.67;;;;;;;27.86;46.65;100130.48;1755895;81;21569;-56
2021/07/11 20:48:18;;;;;;;10.45;7.25;;;;;;;27.83;46.64;100140.22;1756157;81;20945;-57
2021/07/11 20:50:45;;;;;;;9.47;7.10;;;;;;;27.80;46.70;100132.64;1757870;79;20949;-56
2021/07/11 20:53:11;;;;;;;11.70;6.78;;;;;;;27.76;46.84;100135.26;1755542;81;20991;-56
2021/07/11 20:55:40;;;;;;;8.28;6.60;;;;;;;27.75;46.97;100135.59;1754165;81;20948;-54
2021/07/11 20:58:09;;;;;;;16.52;7.15;;;;;;;27.74;47.04;100129.30;1756196;81;21778;-55
2021/07/11 21:00:43;;;;;;;7.42;6.55;;;;;;;27.74;47.20;100134.80;1754508;81;20968;-55
2021/07/11 21:03:09;;;;;;;11.55;7.22;;;;;;;27.72;47.31;100132.15;1755004;81;21522;-55
2021/07/11 21:05:37;;;;;;;;;;;;;;;27.69;47.28;100134.21;1757905;81;20992;-56
2021/07/11 21:08:05;;;;;;;7.15;5.97;;;;;;;27.65;47.55;100132.72;1740633;81;20106;-56
2021/07/11 21:10:34;;;;;;;9.70;7.17;;;;;;;27.62;47.64;100136.95;1755093;81;21136;-56
2021/07/11 21:13:03;;;;;;;8.60;7.05;;;;;;;27.61;47.80;100137.29;1754106;81;20971;-56
2021/07/11 21:15:29;;;;;;;9.68;6.85;;;;;;;27.58;47.89;100131.88;1756147;81;21027;-55
2021/07/11 21:17:58;;;;;;;9.23;6.45;;;;;;;27.57;47.96;100135.77;1755264;81;20869;-55
2021/07/11 21:20:28;;;;;;;11.00;6.50;;;;;;;27.56;47.99;100137.48;1753756;80;21404;-55
2021/07/11 21:22:55;;;;;;;9.43;6.60;;;;;;;27.53;48.02;100140.92;1754889;81;21838;-56
2021/07/11 21:25:22;;;;;;;14.90;6.97;;;;;;;27.51;48.27;100137.12;1757115;81;20999;-55
2021/07/11 21:27:55;;;;;;;14.87;7.45;;;;;;;27.49;48.39;100135.85;1755202;81;20929;-55
2021/07/11 21:30:20;;;;;;;12.98;7.42;;;;;;;27.48;48.55;100135.64;1754227;81;21591;-56
2021/07/11 21:32:49;;;;;;;12.13;6.62;;;;;;;27.45;48.65;100132.98;1753527;81;21036;-55
2021/07/11 21:35:16;;;;;;;9.18;6.75;;;;;;;27.42;48.58;100139.16;1756476;81;21241;-55
2021/07/11 21:37:43;;;;;;;9.58;6.83;;;;;;;27.38;48.73;100135.47;1759462;81;20936;-55
2021/07/11 21:40:12;;;;;;;9.30;6.10;;;;;;;27.36;48.91;100138.56;1755232;81;21487;-56
2021/07/11 21:42:38;;;;;;;8.13;6.80;;;;;;;27.34;48.86;100141.41;1754297;81;21090;-56
2021/07/11 21:45:08;;;;;;;11.40;6.97;;;;;;;27.28;49.05;100136.09;1752582;81;20948;-55
2021/07/11 21:47:37;;;;;;;8.68;6.67;;;;;;;27.24;49.17;100139.86;1754760;81;20873;-55
2021/07/11 21:50:06;;;;;;;9.40;7.45;;;;;;;27.20;49.32;100142.46;1745203;81;20996;-55
2021/07/11 21:52:33;;;;;;;7.78;6.67;;;;;;;27.18;49.39;100151.63;1759044;81;21036;-54
2021/07/11 21:54:59;;;;;;;11.22;6.78;;;;;;;27.16;49.57;100144.84;1755221;81;21008;-55
2021/07/11 21:57:26;;;;;;;9.98;6.65;;;;;;;27.12;49.68;100148.03;1755644;81;21032;-56
2021/07/11 21:59:56;;;;;;;7.80;6.65;;;;;;;27.09;49.94;100144.00;1752798;81;21494;-54
2021/07/11 22:02:24;;;;;;;7.83;6.60;;;;;;;27.09;49.96;100148.13;1753411;80;20979;-55
2021/07/11 22:04:50;;;;;;;8.95;6.97;;;;;;;27.09;50.06;100147.58;1754495;81;21015;-55
2021/07/11 22:07:17;;;;;;;10.60;6.97;;;;;;;27.08;50.17;100137.70;1753589;79;20997;-55
2021/07/11 22:09:45;;;;;;;8.85;6.62;;;;;;;27.09;50.27;100141.25;1755701;81;21478;-54
2021/07/11 22:12:11;;;;;;;9.45;6.83;;;;;;;27.07;50.31;100141.58;1755202;81;21168;-54
2021/07/11 22:14:39;;;;;;;8.50;6.67;;;;;;;27.07;50.44;100138.04;1754616;81;21050;-55
2021/07/11 22:17:06;;;;;;;14.43;7.55;;;;;;;27.06;50.47;100136.42;1752408;81;21102;-55
2021/07/11 22:19:35;;;;;;;10.32;6.28;;;;;;;27.03;50.45;100135.72;1753710;81;21503;-55
2021/07/11 22:22:02;;;;;;;12.43;6.83;;;;;;;27.01;50.40;100132.51;1754250;81;20984;-57
2021/07/11 22:24:29;;;;;;;7.72;6.35;;;;;;;27.00;50.39;100133.09;1753567;81;21070;-57
2021/07/11 22:26:57;;;;;;;8.90;6.83;;;;;;;27.00;50.48;100137.22;1756845;81;20924;-55
2021/07/11 22:29:24;;;;;;;7.62;6.53;;;;;;;26.98;50.31;100131.80;1755410;81;20956;-55
2021/07/11 22:31:51;;;;;;;8.87;6.13;;;;;;;26.96;50.42;100130.77;1755734;81;21538;-56
2021/07/11 22:34:17;;;;;;;9.28;6.37;;;;;;;26.93;50.45;100128.11;1761790;80;20987;-55
2021/07/11 22:36:44;;;;;;;8.23;6.95;;;;;;;26.93;50.30;100125.94;1769031;80;21178;-55
2021/07/11 22:39:11;;;;;;;10.72;6.67;;;;;;;26.91;50.21;100122.16;1773953;80;21030;-55
2021/07/11 22:41:38;;;;;;;9.18;6.50;;;;;;;26.90;50.20;100123.28;1770826;80;21501;-54
2021/07/11 22:44:05;;;;;;;7.75;6.60;;;;;;;26.88;50.23;100122.82;1768775;80;20923;-55
2021/07/11 22:46:32;;;;;;;8.08;6.15;;;;;;;26.86;50.27;100126.45;1770183;80;20936;-55
2021/07/11 22:48:58;;;;;;;11.83;6.67;;;;;;;26.83;50.39;100127.70;1770468;80;21866;-55
2021/07/11 22:51:25;;;;;;;7.33;6.58;;;;;;;26.80;50.42;100118.76;1773998;80;20952;-55
2021/07/11 22:53:51;;;;;;;7.20;6.33;;;;;;;26.78;50.53;100117.72;1770770;80;21026;-55
2021/07/11 22:56:19;;;;;;;10.98;6.28;;;;;;;26.80;50.79;100116.01;1772285;80;21023;-55
2021/07/11 22:58:46;;;;;;;8.15;6.45;;;;;;;26.80;50.67;100114.63;1772105;80;20869;-58
2021/07/11 23:01:12;;;;;;;9.08;6.72;;;;;;;26.80;50.67;100117.38;1771707;80;21518;-54
2021/07/11 23:03:39;;;;;;;9.55;6.05;;;;;;;26.80;50.58;100116.80;1771513;80;20951;-54
2021/07/11 23:06:05;;;;;;;13.83;6.90;;;;;;;26.80;50.43;100119.55;1769590;80;20940;-54
2021/07/11 23:08:32;;;;;;;9.70;6.45;;;;;;;26.79;50.48;100118.52;1773131;80;21026;-54
2021/07/11 23:11:00;;;;;;;;;;;;;;;26.77;50.58;100124.34;1774301;79;21033;-54
2021/07/11 23:13:26;;;;;;;7.67;6.45;;;;;;;26.76;50.56;100119.97;1771265;80;21145;-54
2021/07/11 23:15:54;;;;;;;;;;;;;;;26.75;50.57;100125.23;1773464;79;20928;-55
2021/07/11 23:18:23;;;;;;;11.43;6.50;;;;;;;26.73;50.66;100122.02;1767987;80;20201;-55
2021/07/11 23:20:50;;;;;;;8.03;6.33;;;;;;;26.71;50.60;100116.86;1770844;80;20924;-55
2021/07/11 23:23:17;;;;;;;8.48;5.95;;;;;;;26.71;50.72;100118.81;1771591;80;21006;-55
2021/07/11 23:25:43;;;;;;;12.35;6.33;;;;;;;26.69;50.66;100126.02;1771620;80;21786;-55
2021/07/11 23:28:10;;;;;;;9.85;6.22;;;;;;;26.68;50.77;100120.85;1774951;80;20967;-55
2021/07/11 23:30:37;;;;;;;6.67;5.97;;;;;;;26.66;50.95;100119.75;1770177;80;20996;-53
2021/07/11 23:33:04;;;;;;;6.95;5.87;;;;;;;26.67;50.70;100121.41;1773148;80;20979;-56
2021/07/11 23:35:31;;;;;;;6.28;5.60;;;;;;;26.67;50.57;100120.58;1768345;80;21489;-54
2021/07/11 23:37:59;;;;;;;8.10;6.05;;;;;;;26.65;50.52;100120.09;1772174;80;21167;-54
2021/07/11 23:40:27;;;;;;;8.23;6.33;;;;;;;26.63;50.77;100117.67;1771703;80;21022;-55
2021/07/11 23:42:53;;;;;;;10.18;6.03;;;;;;;26.62;50.70;100116.08;1773962;80;21051;-55
2021/07/11 23:45:20;;;;;;;9.43;5.80;;;;;;;26.62;50.86;100117.45;1769524;80;20983;-55
2021/07/11 23:47:48;;;;;;;7.15;6.12;;;;;;;26.62;50.93;100113.88;1770467;80;20987;-55
2021/07/11 23:50:21;;;;;;;7.77;6.40;;;;;;;26.63;51.12;100114.92;1771045;80;21106;-54
2021/07/11 23:52:48;;;;;;;9.28;6.70;;;;;;;26.62;51.09;100122.95;1769972;80;20999;-55
2021/07/11 23:55:16;;;;;;;8.75;6.53;;;;;;;26.59;51.13;100118.13;1770259;80;21422;-55
2021/07/11 23:57:44;;;;;;;9.30;5.85;;;;;;;26.58;51.21;100117.30;1772015;78;21038;-56
